Time;durP1;ratioP1;P1;durP2;ratioP2;P2;SDS_P1;SDS_P2;PMS_P1;PMS_P2;Temp;Humidity;BMP_temperature;BMP_pressure;BME280_temperature;BME280_humidity;BME280_pressure;Samples;Min_cycle;Max_cycle;Signal;HPM_P1;HPM_P2
2023/08/22 00:01:09;;;;;;;49.90;17.00;;;;;;;18.23;100.00;99378.36;136965;1280;22100;-84
2023/08/22 00:04:12;;;;;;;23.50;14.00;;;;;;;18.34;100.00;99375.61;136993;1280;22481;-84
2023/08/22 00:07:15;;;;;;;222.20;29.90;;;;;;;18.44;100.00;99374.96;137002;1280;22073;-84
2023/08/22 00:10:17;;;;;;;23.50;12.80;;;;;;;18.54;100.00;99369.38;136998;1280;22071;-84
2023/08/22 00:13:20;;;;;;;21.80;13.00;;;;;;;18.64;100.00;99369.11;137037;1280;22036;-84
2023/08/22 00:16:23;;;;;;;21.10;13.00;;;;;;;18.68;100.00;99369.95;136981;1280;22036;-84
2023/08/22 00:19:25;;;;;;;19.00;12.70;;;;;;;18.78;100.00;99367.36;137011;1280;22235;-84
2023/08/22 00:22:28;;;;;;;18.80;11.90;;;;;;;18.78;100.00;99368.05;136982;1280;22550;-84
2023/08/22 00:25:30;;;;;;;16.60;13.30;;;;;;;18.85;100.00;99367.08;136967;1280;22292;-84
2023/08/22 00:28:33;;;;;;;545.30;61.50;;;;;;;18.92;100.00;99367.34;136946;1280;22045;-84
2023/08/22 00:31:35;;;;;;;27.60;14.30;;;;;;;18.89;100.00;99364.20;136957;1280;22064;-84
2023/08/22 00:34:38;;;;;;;56.10;15.70;;;;;;;18.85;100.00;99359.50;136926;1280;22050;-84
2023/08/22 00:37:40;;;;;;;16.60;11.80;;;;;;;18.78;100.00;99358.70;136948;1280;22032;-85
2023/08/22 00:40:43;;;;;;;19.50;12.50;;;;;;;18.74;100.00;99358.23;136963;1280;22734;-84
2023/08/22 00:43:46;;;;;;;27.80;12.70;;;;;;;18.72;100.00;99360.20;136818;1280;22088;-85
2023/08/22 00:46:49;;;;;;;21.40;11.70;;;;;;;18.75;100.00;99360.70;136908;1280;22440;-83
2023/08/22 00:49:51;;;;;;;39.80;16.00;;;;;;;18.58;100.00;99361.94;136882;1280;22076;-82
2023/08/22 00:52:54;;;;;;;25.00;12.30;;;;;;;18.32;100.00;99369.46;136879;1280;22138;-84
2023/08/22 00:55:56;;;;;;;23.90;12.00;;;;;;;18.07;100.00;99368.64;136916;1280;22165;-83
2023/08/22 00:58:59;;;;;;;16.50;12.20;;;;;;;17.91;100.00;99375.48;136904;1280;22110;-84
2023/08/22 01:02:02;;;;;;;14.50;11.10;;;;;;;18.00;100.00;99373.81;136890;1280;22139;-83
2023/08/22 01:05:04;;;;;;;99.60;16.80;;;;;;;17.81;100.00;99372.94;136884;1280;22104;-83
2023/08/22 01:08:07;;;;;;;16.40;11.70;;;;;;;17.63;100.00;99370.42;136905;1280;22150;-81
2023/08/22 01:11:09;;;;;;;14.50;11.10;;;;;;;17.46;100.00;99364.73;136816;1280;22185;-81
2023/08/22 01:14:12;;;;;;;22.50;12.10;;;;;;;17.34;100.00;99361.13;136907;1280;22154;-83
2023/08/22 01:17:15;;;;;;;14.90;11.90;;;;;;;17.28;100.00;99353.41;136934;1280;22115;-83
2023/08/22 01:20:17;;;;;;;12.50;10.80;;;;;;;17.40;100.00;99354.95;136926;1280;22102;-83
2023/08/22 01:23:19;;;;;;;13.30;11.10;;;;;;;17.29;100.00;99353.05;136884;1280;22160;-84
2023/08/22 01:26:22;;;;;;;13.80;11.10;;;;;;;17.19;100.00;99352.42;136916;1280;22295;-83
2023/08/22 01:29:25;;;;;;;12.10;10.60;;;;;;;17.05;100.00;99351.27;136950;1280;22121;-83
2023/08/22 01:32:27;;;;;;;13.60;10.80;;;;;;;16.94;100.00;99356.27;136946;1280;22061;-84
2023/08/22 01:35:31;;;;;;;13.60;10.80;;;;;;;16.82;100.00;99354.22;136969;1280;22051;-84
2023/08/22 01:38:33;;;;;;;17.00;10.50;;;;;;;16.72;100.00;99347.77;136920;1280;21882;-83
2023/08/22 01:41:36;;;;;;;13.80;10.90;;;;;;;16.66;100.00;99348.31;136917;1280;22041;-83
2023/08/22 01:44:38;;;;;;;11.80;10.30;;;;;;;16.58;100.00;99348.33;136956;1280;22058;-82
2023/08/22 01:47:41;;;;;;;12.40;10.50;;;;;;;16.51;100.00;99344.15;136954;1280;22557;-82
2023/08/22 01:50:43;;;;;;;15.10;10.90;;;;;;;16.41;100.00;99338.70;136915;1280;22637;-82
2023/08/22 01:53:46;;;;;;;13.50;10.80;;;;;;;16.37;100.00;99342.05;136954;1280;22657;-82
2023/08/22 01:56:50;;;;;;;13.60;11.20;;;;;;;16.36;100.00;99342.94;136950;1280;22017;-82
2023/08/22 01:59:53;;;;;;;15.30;10.80;;;;;;;16.33;100.00;99346.64;136934;1280;22044;-82
2023/08/22 02:02:55;;;;;;;17.10;11.70;;;;;;;16.31;100.00;99351.39;136938;1280;22123;-82
2023/08/22 02:05:58;;;;;;;12.70;10.70;;;;;;;16.29;100.00;99347.52;136958;1280;22068;-82
2023/08/22 02:09:00;;;;;;;15.10;10.00;;;;;;;16.23;100.00;99341.92;136934;1280;22575;-82
2023/08/22 02:12:03;;;;;;;14.90;11.60;;;;;;;16.13;100.00;99339.14;136939;1280;22111;-82
2023/08/22 02:15:06;;;;;;;18.60;12.20;;;;;;;16.10;100.00;99338.80;136904;1280;22637;-83
2023/08/22 02:18:08;;;;;;;15.80;11.00;;;;;;;16.10;100.00;99334.95;136890;1280;22049;-82
2023/08/22 02:21:11;;;;;;;88.20;14.40;;;;;;;16.07;100.00;99336.70;136919;1280;22000;-82
2023/08/22 02:24:13;;;;;;;13.20;10.30;;;;;;;16.05;100.00;99334.26;136961;1280;22122;-81
2023/08/22 02:27:16;;;;;;;63.40;16.80;;;;;;;16.00;100.00;99331.63;136904;1280;22164;-82
2023/08/22 02:30:18;;;;;;;206.20;24.50;;;;;;;16.00;100.00;99332.33;136936;1280;22129;-82
2023/08/22 02:33:21;;;;;;;28.20;12.20;;;;;;;15.99;100.00;99329.17;136905;1280;22239;-82
2023/08/22 02:36:23;;;;;;;14.80;11.20;;;;;;;15.91;100.00;99331.65;136875;1280;22046;-83
2023/08/22 02:39:26;;;;;;;14.90;10.70;;;;;;;15.89;100.00;99332.35;136939;1280;22055;-83
2023/08/22 02:42:28;;;;;;;14.60;11.00;;;;;;;15.87;100.00;99335.00;136918;1280;22033;-83
2023/08/22 02:45:31;;;;;;;55.90;12.80;;;;;;;15.83;100.00;99329.73;136902;1280;22085;-83
2023/08/22 02:48:33;;;;;;;17.60;12.20;;;;;;;15.77;100.00;99332.90;136963;1280;22121;-81
2023/08/22 02:51:36;;;;;;;15.70;10.70;;;;;;;15.72;100.00;99332.91;136947;1280;22116;-82
2023/08/22 02:54:38;;;;;;;20.80;10.70;;;;;;;15.69;100.00;99333.79;136950;1280;22126;-81
2023/08/22 02:57:41;;;;;;;13.30;10.30;;;;;;;15.67;100.00;99334.48;136942;1280;22127;-82
2023/08/22 03:00:43;;;;;;;77.10;16.80;;;;;;;15.64;100.00;99329.05;136926;1280;22065;-82
2023/08/22 03:03:49;;;;;;;36.60;13.30;;;;;;;15.61;100.00;99331.86;136899;1280;22149;-79
2023/08/22 03:06:52;;;;;;;200.90;23.90;;;;;;;15.61;100.00;99339.22;136922;1280;22580;-84
2023/08/22 03:09:54;;;;;;;26.10;12.60;;;;;;;15.60;100.00;99343.23;136895;1280;22152;-82
2023/08/22 03:15:42;;;;;;;23.10;11.00;;;;;;;15.61;100.00;99344.11;132316;1305;544750;-81
2023/08/22 03:18:44;;;;;;;42.90;14.60;;;;;;;15.52;100.00;99343.56;135889;1289;22570;-81
2023/08/22 03:21:47;;;;;;;21.50;12.10;;;;;;;15.46;100.00;99338.64;135747;1288;22609;-80
2023/08/22 03:24:49;;;;;;;16.80;12.10;;;;;;;15.43;100.00;99340.22;135704;1289;23157;-80
2023/08/22 03:27:52;;;;;;;72.40;15.10;;;;;;;15.44;100.00;99337.77;135388;1286;155279;-80
2023/08/22 03:30:55;;;;;;;24.10;11.50;;;;;;;15.42;100.00;99331.80;135792;1282;22557;-81
2023/08/22 03:33:57;;;;;;;16.90;10.20;;;;;;;15.39;100.00;99330.75;135926;1282;22876;-80
2023/08/22 03:37:00;;;;;;;27.50;11.20;;;;;;;15.38;100.00;99334.79;135457;1282;22471;-79
2023/08/22 03:40:02;;;;;;;45.50;13.10;;;;;;;15.36;100.00;99334.77;135103;1279;22544;-81
2023/08/22 03:43:05;;;;;;;23.90;12.30;;;;;;;15.35;100.00;99338.99;135137;1267;22574;-81
2023/08/22 03:46:08;;;;;;;22.30;12.50;;;;;;;15.33;100.00;99336.17;135384;1275;22537;-81
2023/08/22 03:49:10;;;;;;;23.00;12.50;;;;;;;15.31;100.00;99333.55;135866;1275;22586;-81
2023/08/22 03:52:13;;;;;;;91.90;16.70;;;;;;;15.31;100.00;99331.27;135550;1274;22546;-80
2023/08/22 03:55:16;;;;;;;19.50;14.50;;;;;;;15.28;100.00;99331.27;135547;1274;22534;-81
2023/08/22 03:58:18;;;;;;;24.70;16.30;;;;;;;15.25;100.00;99329.52;135591;1274;22537;-82
2023/08/22 04:01:21;;;;;;;307.40;34.50;;;;;;;15.26;100.00;99328.98;135401;1270;22483;-81
2023/08/22 04:04:23;;;;;;;32.60;16.70;;;;;;;15.28;100.00;99333.02;136114;1274;22563;-80
2023/08/22 04:07:26;;;;;;;23.50;15.30;;;;;;;15.33;100.00;99333.91;135311;1274;22552;-82
2023/08/22 04:10:28;;;;;;;17.10;13.00;;;;;;;15.35;100.00;99335.66;135491;1274;25419;-80
2023/08/22 04:13:31;;;;;;;22.10;13.10;;;;;;;15.41;100.00;99336.37;136289;1272;22550;-82
2023/08/22 04:16:33;;;;;;;106.20;19.60;;;;;;;15.47;100.00;99340.57;136458;1274;23244;-81
2023/08/22 04:19:36;;;;;;;40.50;15.20;;;;;;;15.54;100.00;99335.48;136194;1274;23009;-81
2023/08/22 04:22:39;;;;;;;16.50;11.80;;;;;;;15.62;100.00;99337.30;136441;1274;22561;-79
2023/08/22 04:25:42;;;;;;;24.20;11.80;;;;;;;15.73;100.00;99341.67;135249;1274;22581;-80
2023/08/22 04:28:45;;;;;;;25.40;10.40;;;;;;;15.81;100.00;99329.22;135110;1275;22544;-82
2023/08/22 04:31:48;;;;;;;11.50;10.20;;;;;;;15.83;100.00;99324.30;136410;1275;22561;-81
2023/08/22 04:34:51;;;;;;;13.30;10.70;;;;;;;15.89;100.00;99328.14;136425;1275;22597;-82
2023/08/22 04:37:53;;;;;;;128.40;16.20;;;;;;;16.07;100.00;99331.09;136474;1274;22572;-83
2023/08/22 04:40:56;;;;;;;32.60;15.30;;;;;;;16.18;100.00;99328.06;136682;1275;22537;-84
2023/08/22 04:43:59;;;;;;;13.00;11.50;;;;;;;16.26;100.00;99318.38;136382;1275;22552;-82
2023/08/22 04:47:03;;;;;;;12.10;10.00;;;;;;;16.40;100.00;99320.96;136280;1275;22553;-82
2023/08/22 04:50:05;;;;;;;;;;;;;;;16.54;100.00;99324.27;136343;1275;22592;-83
2023/08/22 04:53:08;;;;;;;13.90;10.20;;;;;;;16.65;100.00;99324.07;136391;1275;23106;-80
2023/08/22 04:56:12;;;;;;;17.50;11.00;;;;;;;16.80;100.00;99316.45;136471;1275;22589;-82
2023/08/22 04:59:14;;;;;;;98.00;15.70;;;;;;;16.95;100.00;99321.27;136451;1275;22520;-80
2023/08/22 05:02:17;;;;;;;16.80;10.30;;;;;;;17.07;100.00;99321.20;135370;1275;22557;-80
2023/08/22 05:05:19;;;;;;;15.80;10.00;;;;;;;17.24;100.00;99318.97;136773;1275;22906;-83
2023/08/22 05:08:22;;;;;;;13.40;9.40;;;;;;;17.95;100.00;99312.57;136387;1274;22571;-81
2023/08/22 05:11:25;;;;;;;124.30;20.40;;;;;;;18.73;100.00;99308.88;135255;1275;22523;-79
2023/08/22 05:14:29;;;;;;;33.80;12.90;;;;;;;18.72;100.00;99304.48;135733;1275;22534;-81
2023/08/22 05:17:32;;;;;;;10.80;8.60;;;;;;;18.64;100.00;99307.95;135820;1275;22621;-81
2023/08/22 05:20:34;;;;;;;19.90;8.90;;;;;;;18.66;100.00;99309.68;136520;1275;22587;-81
2023/08/22 05:23:37;;;;;;;11.30;8.80;;;;;;;18.75;100.00;99309.38;136584;1275;24235;-82
2023/08/22 05:26:39;;;;;;;56.70;12.70;;;;;;;18.78;100.00;99313.04;136569;1263;23101;-82
2023/08/22 05:29:42;;;;;;;15.10;9.20;;;;;;;18.85;100.00;99314.19;136590;1275;22696;-82
2023/08/22 05:32:45;;;;;;;27.40;10.80;;;;;;;19.06;100.00;99313.71;136436;1274;24193;-82
2023/08/22 05:35:47;;;;;;;13.60;9.90;;;;;;;19.27;100.00;99311.83;136470;1259;22546;-81
2023/08/22 05:38:50;;;;;;;14.10;8.90;;;;;;;19.46;100.00;99316.28;136658;1275;22644;-81
2023/08/22 05:41:52;;;;;;;18.90;11.30;;;;;;;19.59;100.00;99316.09;136931;1274;22557;-82
2023/08/22 05:44:55;;;;;;;18.50;11.20;;;;;;;19.82;100.00;99310.91;136856;1275;22519;-81
2023/08/22 05:47:57;;;;;;;22.60;12.10;;;;;;;20.11;100.00;99313.22;136974;1275;22895;-81
2023/08/22 05:51:02;;;;;;;35.70;15.00;;;;;;;20.39;100.00;99313.40;137025;1275;22562;-84
2023/08/22 05:54:12;;;;;;;33.70;20.20;;;;;;;20.51;100.00;99319.52;136893;1273;22555;-83
2023/08/22 05:57:18;;;;;;;26.80;13.10;;;;;;;20.68;100.00;99316.69;136992;1275;22569;-82
2023/08/22 06:00:21;;;;;;;25.20;12.90;;;;;;;21.00;100.00;99316.20;136745;1275;22541;-83
2023/08/22 06:03:26;;;;;;;36.70;14.50;;;;;;;21.29;100.00;99313.23;136828;1275;22557;-81
2023/08/22 06:06:28;;;;;;;22.10;13.10;;;;;;;21.63;100.00;99314.88;137158;1275;22542;-81
2023/08/22 06:09:31;;;;;;;23.30;12.20;;;;;;;21.81;100.00;99309.82;137064;1275;22538;-79
2023/08/22 06:12:33;;;;;;;27.80;14.20;;;;;;;21.89;100.00;99307.66;135920;1275;22477;-79
2023/08/22 06:15:36;;;;;;;56.20;15.00;;;;;;;22.09;100.00;99307.49;136099;1274;22464;-85
2023/08/22 06:18:38;;;;;;;19.40;11.80;;;;;;;22.37;100.00;99310.97;136602;1275;22563;-79
2023/08/22 06:21:41;;;;;;;31.60;12.10;;;;;;;22.62;100.00;99310.80;135618;1275;22867;-81
2023/08/22 06:24:43;;;;;;;15.20;10.60;;;;;;;22.80;100.00;99311.16;136497;1275;22618;-83
2023/08/22 06:27:46;;;;;;;16.20;9.60;;;;;;;23.01;100.00;99308.95;136435;1275;22573;-81
2023/08/22 06:30:48;;;;;;;26.90;11.30;;;;;;;23.23;100.00;99309.14;136573;1275;22125;-82
2023/08/22 06:33:51;;;;;;;13.50;10.40;;;;;;;23.75;100.00;99314.91;136355;1275;22689;-83
2023/08/22 06:36:55;;;;;;;;;;;;;;;24.06;100.00;99318.98;136250;1275;22524;-83
2023/08/22 06:39:57;;;;;;;17.20;9.90;;;;;;;24.33;100.00;99315.95;136624;1275;22555;-83
2023/08/22 06:43:00;;;;;;;23.30;10.10;;;;;;;24.50;100.00;99317.98;136465;1275;22628;-83
2023/08/22 06:46:02;;;;;;;14.00;9.10;;;;;;;24.67;100.00;99323.02;136573;1275;22555;-82
2023/08/22 06:49:05;;;;;;;41.70;27.90;;;;;;;24.77;100.00;99315.71;136561;1275;22604;-83
2023/08/22 06:52:08;;;;;;;40.80;11.50;;;;;;;24.96;100.00;99314.43;136574;1275;22545;-82
2023/08/22 06:55:10;;;;;;;117.90;19.60;;;;;;;25.19;100.00;99316.23;136663;1275;23162;-82
2023/08/22 06:58:13;;;;;;;27.70;9.30;;;;;;;25.44;100.00;99321.28;136644;1268;22599;-82
2023/08/22 07:01:15;;;;;;;17.20;10.00;;;;;;;25.36;100.00;99319.13;136489;1271;22603;-83
2023/08/22 07:04:23;;;;;;;11.40;8.50;;;;;;;25.21;100.00;99317.76;136369;1275;23105;-82
2023/08/22 07:07:25;;;;;;;11.00;8.70;;;;;;;25.20;100.00;99323.68;136323;1275;22546;-82
2023/08/22 07:10:28;;;;;;;19.60;9.00;;;;;;;25.37;100.00;99324.41;136286;1274;22570;-82
2023/08/22 07:13:30;;;;;;;11.80;8.60;;;;;;;25.65;100.00;99319.71;136334;1275;22544;-81
2023/08/22 07:16:33;;;;;;;26.10;9.10;;;;;;;25.88;100.00;99319.44;136577;1275;22546;-82
2023/08/22 07:19:36;;;;;;;10.00;8.30;;;;;;;26.05;100.00;99323.19;136512;1274;24236;-83
2023/08/22 07:22:39;;;;;;;9.40;7.90;;;;;;;26.17;100.00;99322.33;136535;1275;24415;-83
2023/08/22 07:25:41;;;;;;;10.30;7.10;;;;;;;26.36;100.00;99319.73;136462;1275;22480;-82
2023/08/22 07:28:44;;;;;;;58.90;10.40;;;;;;;26.59;100.00;99327.60;136838;1268;22578;-83
2023/08/22 07:31:46;;;;;;;13.50;8.20;;;;;;;26.77;100.00;99320.37;136181;1275;22482;-84
2023/08/22 07:34:49;;;;;;;11.10;7.30;;;;;;;26.99;100.00;99319.36;136637;1275;22480;-80
2023/08/22 07:37:52;;;;;;;20.00;7.00;;;;;;;27.18;100.00;99323.27;136903;1275;22536;-80
2023/08/22 07:40:54;;;;;;;39.00;9.50;;;;;;;27.38;79.07;99318.55;135219;1275;22524;-84
2023/08/22 07:43:57;;;;;;;78.50;11.90;;;;;;;27.54;63.31;99313.27;136378;1275;22511;-82
2023/08/22 07:46:59;;;;;;;16.60;7.50;;;;;;;27.75;62.78;99316.91;136664;1271;22563;-82
2023/08/22 07:50:03;;;;;;;26.90;9.40;;;;;;;27.94;61.66;99315.40;136578;1263;22558;-82
2023/08/22 07:53:06;;;;;;;11.20;8.50;;;;;;;28.05;61.10;99311.44;136675;1275;22552;-83
2023/08/22 07:56:08;;;;;;;16.40;8.70;;;;;;;28.21;60.55;99316.89;136698;1275;22504;-83
2023/08/22 07:59:11;;;;;;;16.20;9.20;;;;;;;28.27;59.46;99319.24;136723;1275;22530;-81
2023/08/22 08:02:14;;;;;;;17.90;10.40;;;;;;;28.20;59.00;99317.09;136607;1275;22521;-83
2023/08/22 08:05:17;;;;;;;46.20;11.20;;;;;;;28.22;59.22;99318.96;136559;1275;22556;-82
2023/08/22 08:08:20;;;;;;;15.90;9.50;;;;;;;28.45;58.72;99322.41;136458;1275;22543;-82
2023/08/22 08:11:23;;;;;;;14.60;8.70;;;;;;;28.61;58.09;99323.33;136393;1264;22578;-82
2023/08/22 08:14:26;;;;;;;53.50;12.90;;;;;;;28.68;57.79;99317.10;136690;1274;22531;-80
2023/08/22 08:17:28;;;;;;;24.60;9.70;;;;;;;28.87;57.75;99311.20;135372;1275;22595;-81
2023/08/22 08:20:31;;;;;;;16.00;8.20;;;;;;;29.09;57.15;99308.89;136506;1275;22558;-79
2023/08/22 08:23:33;;;;;;;12.60;8.10;;;;;;;29.20;56.46;99308.98;135237;1275;22553;-82
2023/08/22 08:26:37;;;;;;;15.20;8.30;;;;;;;29.24;56.28;99307.14;136414;1275;22578;-82
2023/08/22 08:29:40;;;;;;;10.80;7.80;;;;;;;29.16;55.29;99303.80;136364;1275;22572;-80
2023/08/22 08:32:45;;;;;;;56.90;12.00;;;;;;;29.10;55.84;99300.59;136336;1265;22596;-80
2023/08/22 08:35:48;;;;;;;159.90;17.70;;;;;;;29.21;55.29;99299.64;136245;1275;22552;-81
2023/08/22 08:38:51;;;;;;;23.30;8.70;;;;;;;29.39;54.89;99296.42;136173;1269;22578;-80
2023/08/22 08:41:54;;;;;;;36.40;9.50;;;;;;;29.56;54.21;99295.32;136028;1275;22484;-81
2023/08/22 08:44:57;;;;;;;9.90;6.00;;;;;;;29.71;53.39;99299.43;136083;1274;22643;-82
2023/08/22 08:47:59;;;;;;;14.50;6.30;;;;;;;29.76;53.26;99295.19;136354;1274;25086;-82
2023/08/22 08:51:02;;;;;;;7.70;6.00;;;;;;;29.82;52.57;99295.39;136284;1275;22562;-80
2023/08/22 08:54:05;;;;;;;6.10;5.10;;;;;;;29.74;51.15;99293.52;136309;1274;22650;-78
2023/08/22 08:57:09;;;;;;;5.10;3.80;;;;;;;29.75;50.61;99289.52;135212;1253;22558;-84
2023/08/22 09:00:12;;;;;;;5.20;3.70;;;;;;;29.72;49.08;99289.14;136421;1275;22555;-83
2023/08/22 09:03:14;;;;;;;7.20;4.10;;;;;;;29.23;48.56;99288.00;136197;1275;22844;-83
2023/08/22 09:06:17;;;;;;;5.20;4.50;;;;;;;28.93;49.60;99286.15;136269;1275;22598;-81
2023/08/22 09:09:20;;;;;;;5.80;4.20;;;;;;;29.12;50.24;99282.75;136211;1274;22558;-81
2023/08/22 09:12:23;;;;;;;7.40;4.80;;;;;;;29.39;50.16;99277.82;136291;1268;22561;-82
2023/08/22 09:15:28;;;;;;;12.10;5.10;;;;;;;29.72;49.67;99278.90;136351;1275;22877;-81
2023/08/22 09:18:31;;;;;;;6.80;4.70;;;;;;;29.90;48.21;99279.33;136262;1275;22496;-81
2023/08/22 09:21:34;;;;;;;12.70;4.90;;;;;;;29.92;48.37;99277.95;136076;1275;22933;-82
2023/08/22 09:24:36;;;;;;;;;;;;;;;30.06;47.83;99274.34;136232;1268;22596;-81
2023/08/22 09:27:39;;;;;;;9.40;5.90;;;;;;;30.05;47.54;99274.27;136435;1275;22927;-82
2023/08/22 09:30:42;;;;;;;7.00;4.50;;;;;;;30.21;47.72;99269.29;136420;1275;23066;-82
2023/08/22 09:33:45;;;;;;;9.30;5.70;;;;;;;30.36;47.15;99264.80;136660;1275;23123;-81
2023/08/22 09:36:47;;;;;;;;;;;;;;;30.37;46.04;99263.46;136631;1273;22566;-84
2023/08/22 09:39:50;;;;;;;7.90;4.30;;;;;;;30.34;46.21;99262.39;136798;1275;22677;-83
2023/08/22 09:42:53;;;;;;;5.70;4.00;;;;;;;30.38;46.07;99261.08;136695;1275;22625;-83
2023/08/22 09:46:01;;;;;;;5.50;3.80;;;;;;;30.50;46.50;99256.05;136638;1275;22568;-83
2023/08/22 09:49:04;;;;;;;7.20;3.20;;;;;;;30.68;44.50;99258.13;136744;1275;23218;-82
2023/08/22 09:52:07;;;;;;;5.10;3.40;;;;;;;30.84;42.70;99253.91;136740;1275;22575;-82
2023/08/22 09:55:10;;;;;;;4.20;3.20;;;;;;;30.94;42.29;99256.82;136700;1275;22543;-83
2023/08/22 09:58:12;;;;;;;5.10;3.20;;;;;;;31.01;42.19;99253.86;136520;1275;22546;-83
2023/08/22 10:01:18;;;;;;;53.00;10.30;;;;;;;31.03;41.84;99253.73;136730;1275;22542;-79
2023/08/22 10:04:20;;;;;;;7.10;3.60;;;;;;;30.97;42.08;99249.63;136608;1275;22559;-83
2023/08/22 10:07:24;;;;;;;5.20;3.70;;;;;;;30.99;41.97;99244.48;136311;1275;22221;-84
2023/08/22 10:10:27;;;;;;;5.30;3.50;;;;;;;31.00;42.02;99235.41;136420;1275;23140;-79
2023/08/22 10:13:30;;;;;;;;;;;;;;;30.95;42.02;99236.79;135011;1275;25343;-81
2023/08/22 10:16:34;;;;;;;56.00;6.60;;;;;;;30.91;43.02;99232.59;136393;1275;22572;-82
2023/08/22 10:19:37;;;;;;;14.50;4.30;;;;;;;31.08;42.14;99236.48;136259;1275;22565;-80
2023/08/22 10:22:39;;;;;;;4.40;3.50;;;;;;;31.06;41.62;99235.56;135004;1253;22639;-80
2023/08/22 10:25:44;;;;;;;3.00;2.80;;;;;;;30.93;38.75;99233.68;134852;1275;22546;-79
2023/08/22 10:28:52;;;;;;;2.80;2.60;;;;;;;30.36;37.08;99226.91;136017;1275;22553;-80
2023/08/22 10:31:54;;;;;;;8.30;3.60;;;;;;;30.05;38.16;99221.66;136124;1275;22557;-78
2023/08/22 10:34:57;;;;;;;30.00;4.50;;;;;;;29.81;39.11;99223.70;134988;1275;22889;-79
2023/08/22 10:37:59;;;;;;;3.30;2.80;;;;;;;29.82;39.40;99219.28;136044;1275;22613;-83
2023/08/22 10:41:03;;;;;;;58.90;6.90;;;;;;;29.81;39.98;99216.48;136187;1275;22533;-79
2023/08/22 10:44:06;;;;;;;11.60;4.20;;;;;;;30.13;40.36;99215.98;136398;1267;22523;-85
2023/08/22 10:47:09;;;;;;;;;;;;;;;30.39;39.30;99217.92;136282;1275;22549;-85
2023/08/22 10:50:11;;;;;;;5.60;2.90;;;;;;;30.51;39.26;99218.98;136246;1275;22563;-87
2023/08/22 10:53:15;;;;;;;3.70;2.90;;;;;;;30.56;39.45;99220.27;136208;1275;22567;-86
2023/08/22 10:56:18;;;;;;;5.10;3.10;;;;;;;30.58;39.33;99215.49;136494;1271;22566;-83
2023/08/22 10:59:23;;;;;;;;;;;;;;;30.69;38.80;99216.44;136528;1275;22561;-82
2023/08/22 11:02:26;;;;;;;42.80;8.40;;;;;;;30.68;38.51;99217.36;136688;1275;22535;-83
2023/08/22 11:05:29;;;;;;;5.70;3.10;;;;;;;30.65;38.57;99213.47;136678;1275;22579;-80
2023/08/22 11:08:33;;;;;;;10.60;3.30;;;;;;;30.67;38.79;99211.67;136559;1271;22948;-81
2023/08/22 11:11:36;;;;;;;3.60;3.10;;;;;;;30.63;38.68;99210.90;136524;1275;22530;-83
2023/08/22 11:14:39;;;;;;;4.50;3.70;;;;;;;30.65;38.88;99209.84;136592;1275;22493;-80
2023/08/22 11:17:43;;;;;;;9.60;3.30;;;;;;;30.70;38.24;99210.94;136559;1275;23035;-80
2023/08/22 11:20:45;;;;;;;4.20;3.00;;;;;;;30.80;38.30;99208.49;134901;1275;22593;-83
2023/08/22 11:23:48;;;;;;;5.20;3.10;;;;;;;31.13;38.52;99204.02;136285;1275;25105;-84
2023/08/22 11:26:52;;;;;;;6.60;3.20;;;;;;;31.39;37.99;99204.30;136104;1275;22849;-86
2023/08/22 11:29:58;;;;;;;6.80;2.80;;;;;;;31.65;37.99;99199.42;136139;1275;22642;-83
2023/08/22 11:33:00;;;;;;;3.60;3.20;;;;;;;31.92;37.75;99194.88;136395;1271;25428;-79
2023/08/22 11:36:03;;;;;;;3.80;3.10;;;;;;;32.02;37.66;99193.23;135437;1275;22584;-80
2023/08/22 11:39:08;;;;;;;4.40;3.10;;;;;;;32.10;37.21;99189.50;136516;1275;23106;-81
2023/08/22 11:42:10;;;;;;;7.80;3.20;;;;;;;31.90;36.69;99191.92;136569;1274;22578;-80
2023/08/22 11:45:13;;;;;;;3.40;3.10;;;;;;;31.89;37.33;99191.30;136593;1275;22499;-81
2023/08/22 11:48:16;;;;;;;;;;;;;;;31.90;37.62;99188.14;136450;1275;22586;-82
2023/08/22 11:51:20;;;;;;;3.90;3.30;;;;;;;32.00;37.27;99181.89;136361;1275;22566;-82
2023/08/22 11:54:22;;;;;;;3.50;3.20;;;;;;;31.93;36.70;99179.52;136538;1275;22521;-82
2023/08/22 11:57:25;;;;;;;5.40;3.60;;;;;;;32.06;37.39;99175.73;136361;1275;22569;-82
2023/08/22 12:00:28;;;;;;;;;;;;;;;32.10;36.56;99173.45;136209;1275;22498;-82
2023/08/22 12:03:30;;;;;;;3.90;3.60;;;;;;;32.03;37.81;99171.06;136330;1275;23008;-81
2023/08/22 12:06:33;;;;;;;3.70;3.40;;;;;;;32.20;37.91;99167.52;136371;1275;22559;-82
2023/08/22 12:09:36;;;;;;;;;;;;;;;32.39;37.63;99167.09;136690;1261;22532;-82
2023/08/22 12:12:38;;;;;;;3.50;3.20;;;;;;;32.37;37.62;99166.33;136228;1275;22566;-83
2023/08/22 12:15:41;;;;;;;;;;;;;;;32.17;37.48;99162.88;136476;1271;22567;-82
2023/08/22 12:18:44;;;;;;;3.70;3.30;;;;;;;32.06;38.36;99165.13;136449;1275;22572;-83
2023/08/22 12:21:46;;;;;;;;;;;;;;;32.31;37.52;99160.63;136499;1275;22555;-83
2023/08/22 12:24:49;;;;;;;8.70;3.70;;;;;;;32.42;37.86;99160.41;136673;1275;22499;-86
2023/08/22 12:27:55;;;;;;;148.40;12.20;;;;;;;32.36;37.71;99157.00;136733;1275;22585;-82
2023/08/22 12:30:57;;;;;;;6.80;4.60;;;;;;;32.15;37.83;99148.46;136825;1275;22595;-82
2023/08/22 15:33:43;;;;;;;34.50;6.30;;;;;;;31.21;42.72;99017.83;135658;1276;25279;-83
2023/08/22 15:36:46;;;;;;;23.00;5.70;;;;;;;31.25;43.37;99015.55;135557;1276;22651;-84
2023/08/22 15:39:48;;;;;;;33.30;6.80;;;;;;;31.41;43.06;99012.30;135773;1276;22554;-84
2023/08/22 15:42:51;;;;;;;785.50;83.30;;;;;;;31.44;43.40;99012.74;135747;1276;22547;-83
2023/08/22 15:45:53;;;;;;;92.50;12.20;;;;;;;31.34;43.49;99013.70;135686;1276;22576;-85
2023/08/22 15:48:56;;;;;;;9.10;3.90;;;;;;;31.33;43.21;99009.42;135637;1273;22537;-84
2023/08/22 15:51:58;;;;;;;5.60;3.50;;;;;;;31.36;43.08;99012.83;135976;1276;22559;-84
2023/08/22 15:55:01;;;;;;;5.50;3.80;;;;;;;31.31;43.14;99013.31;135792;1255;22536;-85
2023/08/22 15:58:03;;;;;;;4.20;3.50;;;;;;;31.25;43.83;99009.25;135426;1274;22570;-79
2023/08/22 16:01:06;;;;;;;4.10;3.70;;;;;;;31.32;44.03;99011.67;135464;1276;22643;-78
2023/08/22 16:04:11;;;;;;;4.90;4.30;;;;;;;31.37;44.31;99002.99;135640;1276;22579;-82
2023/08/22 16:07:14;;;;;;;180.70;17.30;;;;;;;31.43;44.30;99000.30;135582;1272;22552;-84
2023/08/22 16:10:16;;;;;;;45.10;6.10;;;;;;;31.50;44.53;98991.30;135575;1276;22884;-84
2023/08/22 16:13:18;;;;;;;6.70;3.80;;;;;;;31.47;44.39;98990.06;136078;1274;22592;-85
2023/08/22 16:16:29;;;;;;;22.50;5.20;;;;;;;31.35;44.77;98990.40;136194;1272;22817;-85
2023/08/22 16:19:32;;;;;;;3.80;3.50;;;;;;;31.27;44.68;98984.83;136043;1276;23232;-85
2023/08/22 16:22:35;;;;;;;133.80;13.40;;;;;;;31.17;44.68;98980.17;136193;1276;22932;-81
2023/08/22 16:25:38;;;;;;;16.20;5.30;;;;;;;30.98;44.84;98981.09;136036;1276;22572;-83
2023/08/22 16:28:41;;;;;;;7.20;4.10;;;;;;;30.85;46.09;98979.29;136287;1274;24245;-82
2023/08/22 16:31:43;;;;;;;4.00;3.60;;;;;;;30.74;46.50;98983.99;136126;1276;22551;-82
2023/08/22 16:34:46;;;;;;;16.20;5.20;;;;;;;30.45;47.03;98978.44;136135;1276;25412;-82
2023/08/22 16:37:48;;;;;;;6.60;3.90;;;;;;;30.02;47.97;98978.52;135990;1276;22548;-81
2023/08/22 16:40:51;;;;;;;9.30;4.10;;;;;;;29.59;50.14;98971.45;135877;1254;22549;-83
2023/08/22 16:43:53;;;;;;;9.60;4.60;;;;;;;29.13;51.50;98964.63;136203;1275;22922;-83
2023/08/22 16:46:56;;;;;;;14.10;5.50;;;;;;;28.73;52.47;98960.77;135711;1276;26089;-83
2023/08/22 16:49:58;;;;;;;10.30;4.70;;;;;;;28.37;53.63;98950.92;136151;1276;22826;-84
2023/08/22 16:53:01;;;;;;;117.60;81.30;;;;;;;28.00;55.14;98943.23;136268;1276;23099;-84
2023/08/22 16:56:03;;;;;;;8.60;6.50;;;;;;;27.67;56.83;98942.73;136283;1276;25179;-84
2023/08/22 16:59:06;;;;;;;26.30;10.20;;;;;;;27.43;57.93;98940.83;136113;1276;22491;-84